LTBR/YEI METAR and TAF weather

Enter ICAO airport designator
Station Type Date Time Source
LTBR METAR 2019/11/22 01:20 UTC NOAA

LTBR 220120Z 00000KT 8000 NSC 03/01 Q1017 NOSIG


Station Type Date Time Source
LTBR Decoded METAR 2019/11/22 01:20 UTC NOAA

Bursa / Yenisehir, Mil-Civ, Turkey (LTBR) 40-15-19N 029-33-45E
Nov 21, 2019 - 08:20 PM EST / 2019.11.22 0120 UTC
Wind: Calm:0
Visibility: 4 mile(s):0
Temperature: 37 F (3 C)
Dew Point: 33 F (1 C)
Relative Humidity: 86%
Pressure (altimeter): 30.03 in. Hg (1017 hPa)
ob: LTBR 220120Z 00000KT 8000 NSC 03/01 Q1017 NOSIG
cycle: 1

Station Type Date Time Source
LTBR TAF 2019/11/21 18:03 UTC NOAA

TAF LTBR 211640Z 2118/2218 VRB02KT CAVOK PROB30 2202/2206 4000 BR
BECMG 2207/2210 SCT035 BKN100 PROB30
TEMPO 2212/2216 -SHRA BKN030 BKN090

Example: see airport list